sensor_id;sensor_type;location;lat;lon;timestamp;P1;durP1;ratioP1;P2;durP2;ratioP2
36691;SDS011;22678;52.052;4.242;2024-01-07T00:01:23;7.47;;;2.90;;
36691;SDS011;22678;52.052;4.242;2024-01-07T00:03:49;6.73;;;2.60;;
36691;SDS011;22678;52.052;4.242;2024-01-07T00:06:16;5.40;;;2.90;;
36691;SDS011;22678;52.052;4.242;2024-01-07T00:08:41;5.57;;;2.60;;
36691;SDS011;22678;52.052;4.242;2024-01-07T00:11:07;7.30;;;3.53;;
36691;SDS011;22678;52.052;4.242;2024-01-07T00:13:32;8.50;;;3.57;;
36691;SDS011;22678;52.052;4.242;2024-01-07T00:15:57;5.47;;;3.00;;
36691;SDS011;22678;52.052;4.242;2024-01-07T00:18:23;10.17;;;3.63;;
36691;SDS011;22678;52.052;4.242;2024-01-07T00:20:49;5.77;;;2.70;;
36691;SDS011;22678;52.052;4.242;2024-01-07T00:23:14;7.33;;;2.27;;
36691;SDS011;22678;52.052;4.242;2024-01-07T00:25:40;7.27;;;3.23;;
36691;SDS011;22678;52.052;4.242;2024-01-07T00:28:05;9.73;;;4.90;;
36691;SDS011;22678;52.052;4.242;2024-01-07T00:30:31;9.90;;;3.90;;
36691;SDS011;22678;52.052;4.242;2024-01-07T00:32:57;8.03;;;3.57;;
36691;SDS011;22678;52.052;4.242;2024-01-07T00:35:22;8.63;;;4.50;;
36691;SDS011;22678;52.052;4.242;2024-01-07T00:37:47;8.47;;;3.90;;
36691;SDS011;22678;52.052;4.242;2024-01-07T00:40:13;6.00;;;3.00;;
36691;SDS011;22678;52.052;4.242;2024-01-07T00:42:38;8.20;;;3.47;;
36691;SDS011;22678;52.052;4.242;2024-01-07T00:45:04;9.27;;;3.93;;
36691;SDS011;22678;52.052;4.242;2024-01-07T00:47:29;6.93;;;3.43;;
36691;SDS011;22678;52.052;4.242;2024-01-07T00:49:54;9.07;;;3.33;;
36691;SDS011;22678;52.052;4.242;2024-01-07T00:52:20;8.20;;;4.20;;
36691;SDS011;22678;52.052;4.242;2024-01-07T00:54:46;6.67;;;3.97;;
36691;SDS011;22678;52.052;4.242;2024-01-07T00:57:12;8.93;;;3.73;;
36691;SDS011;22678;52.052;4.242;2024-01-07T00:59:37;7.53;;;3.23;;
36691;SDS011;22678;52.052;4.242;2024-01-07T01:02:03;5.00;;;2.73;;
36691;SDS011;22678;52.052;4.242;2024-01-07T01:04:28;7.00;;;3.13;;
36691;SDS011;22678;52.052;4.242;2024-01-07T01:06:54;9.93;;;4.50;;
36691;SDS011;22678;52.052;4.242;2024-01-07T01:09:19;7.43;;;3.30;;
36691;SDS011;22678;52.052;4.242;2024-01-07T01:11:44;7.53;;;3.13;;
36691;SDS011;22678;52.052;4.242;2024-01-07T01:14:10;8.10;;;3.70;;
36691;SDS011;22678;52.052;4.242;2024-01-07T01:16:35;6.90;;;3.23;;
36691;SDS011;22678;52.052;4.242;2024-01-07T01:19:00;8.90;;;4.57;;
36691;SDS011;22678;52.052;4.242;2024-01-07T01:21:26;5.53;;;2.73;;
36691;SDS011;22678;52.052;4.242;2024-01-07T01:23:51;8.00;;;4.03;;
36691;SDS011;22678;52.052;4.242;2024-01-07T01:26:16;11.03;;;4.40;;
36691;SDS011;22678;52.052;4.242;2024-01-07T01:28:42;9.17;;;3.57;;
36691;SDS011;22678;52.052;4.242;2024-01-07T01:31:07;10.20;;;3.27;;
36691;SDS011;22678;52.052;4.242;2024-01-07T01:33:32;7.07;;;4.10;;
36691;SDS011;22678;52.052;4.242;2024-01-07T01:35:58;7.27;;;3.93;;
36691;SDS011;22678;52.052;4.242;2024-01-07T01:38:23;9.07;;;4.40;;
36691;SDS011;22678;52.052;4.242;2024-01-07T01:40:52;6.27;;;3.37;;
36691;SDS011;22678;52.052;4.242;2024-01-07T01:43:27;7.90;;;4.10;;
36691;SDS011;22678;52.052;4.242;2024-01-07T01:45:54;8.13;;;3.40;;
36691;SDS011;22678;52.052;4.242;2024-01-07T01:48:21;7.23;;;3.37;;
36691;SDS011;22678;52.052;4.242;2024-01-07T01:50:47;7.57;;;3.77;;
36691;SDS011;22678;52.052;4.242;2024-01-07T01:53:14;7.73;;;3.17;;
36691;SDS011;22678;52.052;4.242;2024-01-07T01:55:41;8.63;;;4.17;;
36691;SDS011;22678;52.052;4.242;2024-01-07T01:58:08;10.00;;;4.10;;
36691;SDS011;22678;52.052;4.242;2024-01-07T02:00:35;7.83;;;4.60;;
36691;SDS011;22678;52.052;4.242;2024-01-07T02:03:00;8.87;;;3.93;;
36691;SDS011;22678;52.052;4.242;2024-01-07T02:05:26;9.27;;;4.27;;
36691;SDS011;22678;52.052;4.242;2024-01-07T02:07:52;8.93;;;3.87;;
36691;SDS011;22678;52.052;4.242;2024-01-07T02:10:18;8.73;;;4.97;;
36691;SDS011;22678;52.052;4.242;2024-01-07T02:12:43;11.33;;;4.77;;
36691;SDS011;22678;52.052;4.242;2024-01-07T02:15:10;8.47;;;4.00;;
36691;SDS011;22678;52.052;4.242;2024-01-07T02:17:35;10.90;;;4.57;;
36691;SDS011;22678;52.052;4.242;2024-01-07T02:20:01;10.73;;;5.03;;
36691;SDS011;22678;52.052;4.242;2024-01-07T02:22:26;11.20;;;3.93;;
36691;SDS011;22678;52.052;4.242;2024-01-07T02:24:51;11.23;;;4.93;;
36691;SDS011;22678;52.052;4.242;2024-01-07T02:27:17;11.23;;;4.80;;
36691;SDS011;22678;52.052;4.242;2024-01-07T02:29:42;11.60;;;4.73;;
36691;SDS011;22678;52.052;4.242;2024-01-07T02:32:07;8.37;;;4.43;;
36691;SDS011;22678;52.052;4.242;2024-01-07T02:34:33;10.07;;;4.87;;
36691;SDS011;22678;52.052;4.242;2024-01-07T02:36:58;11.30;;;6.00;;
36691;SDS011;22678;52.052;4.242;2024-01-07T02:39:23;8.23;;;4.00;;
36691;SDS011;22678;52.052;4.242;2024-01-07T02:41:49;11.60;;;5.80;;
36691;SDS011;22678;52.052;4.242;2024-01-07T02:44:14;12.93;;;5.40;;
36691;SDS011;22678;52.052;4.242;2024-01-07T02:46:39;9.97;;;5.30;;
36691;SDS011;22678;52.052;4.242;2024-01-07T02:49:05;9.87;;;4.80;;
36691;SDS011;22678;52.052;4.242;2024-01-07T02:51:30;8.87;;;4.07;;
36691;SDS011;22678;52.052;4.242;2024-01-07T02:53:55;7.30;;;4.27;;
36691;SDS011;22678;52.052;4.242;2024-01-07T02:56:21;10.17;;;4.77;;
36691;SDS011;22678;52.052;4.242;2024-01-07T02:58:46;12.07;;;4.70;;
36691;SDS011;22678;52.052;4.242;2024-01-07T03:01:11;10.53;;;4.17;;
36691;SDS011;22678;52.052;4.242;2024-01-07T03:03:37;7.83;;;4.00;;
36691;SDS011;22678;52.052;4.242;2024-01-07T03:06:02;11.23;;;5.00;;
36691;SDS011;22678;52.052;4.242;2024-01-07T03:08:28;9.77;;;5.83;;
36691;SDS011;22678;52.052;4.242;2024-01-07T03:10:53;10.53;;;5.17;;
36691;SDS011;22678;52.052;4.242;2024-01-07T03:13:19;9.30;;;4.53;;
36691;SDS011;22678;52.052;4.242;2024-01-07T03:15:44;8.00;;;4.60;;
36691;SDS011;22678;52.052;4.242;2024-01-07T03:18:10;9.53;;;5.40;;
36691;SDS011;22678;52.052;4.242;2024-01-07T03:20:35;9.07;;;4.37;;
36691;SDS011;22678;52.052;4.242;2024-01-07T03:23:00;13.87;;;5.57;;
36691;SDS011;22678;52.052;4.242;2024-01-07T03:25:26;9.33;;;5.20;;
36691;SDS011;22678;52.052;4.242;2024-01-07T03:27:51;9.30;;;5.27;;
36691;SDS011;22678;52.052;4.242;2024-01-07T03:30:17;10.27;;;4.63;;
36691;SDS011;22678;52.052;4.242;2024-01-07T03:32:42;9.40;;;5.17;;
36691;SDS011;22678;52.052;4.242;2024-01-07T03:35:07;12.87;;;5.33;;
36691;SDS011;22678;52.052;4.242;2024-01-07T03:37:36;10.40;;;4.37;;
36691;SDS011;22678;52.052;4.242;2024-01-07T03:40:01;11.27;;;5.43;;
36691;SDS011;22678;52.052;4.242;2024-01-07T03:42:27;8.67;;;4.97;;
36691;SDS011;22678;52.052;4.242;2024-01-07T03:44:52;10.50;;;5.30;;
36691;SDS011;22678;52.052;4.242;2024-01-07T03:47:17;12.23;;;5.63;;
36691;SDS011;22678;52.052;4.242;2024-01-07T03:49:43;10.57;;;5.57;;
36691;SDS011;22678;52.052;4.242;2024-01-07T03:52:08;9.00;;;4.93;;
36691;SDS011;22678;52.052;4.242;2024-01-07T03:54:34;10.17;;;4.40;;
36691;SDS011;22678;52.052;4.242;2024-01-07T03:56:59;9.90;;;5.30;;
36691;SDS011;22678;52.052;4.242;2024-01-07T03:59:24;9.17;;;4.47;;
36691;SDS011;22678;52.052;4.242;2024-01-07T04:01:54;9.67;;;5.63;;
36691;SDS011;22678;52.052;4.242;2024-01-07T04:04:21;9.73;;;5.30;;
36691;SDS011;22678;52.052;4.242;2024-01-07T04:06:46;12.10;;;5.17;;
36691;SDS011;22678;52.052;4.242;2024-01-07T04:09:11;6.30;;;4.00;;
36691;SDS011;22678;52.052;4.242;2024-01-07T04:11:40;10.97;;;5.63;;
36691;SDS011;22678;52.052;4.242;2024-01-07T04:14:06;12.37;;;5.73;;
36691;SDS011;22678;52.052;4.242;2024-01-07T04:16:32;8.60;;;3.83;;
36691;SDS011;22678;52.052;4.242;2024-01-07T04:18:57;12.57;;;5.33;;
36691;SDS011;22678;52.052;4.242;2024-01-07T04:21:23;8.20;;;4.40;;
36691;SDS011;22678;52.052;4.242;2024-01-07T04:23:48;11.17;;;4.83;;
36691;SDS011;22678;52.052;4.242;2024-01-07T04:26:13;8.03;;;3.40;;
36691;SDS011;22678;52.052;4.242;2024-01-07T04:28:40;7.83;;;4.63;;
36691;SDS011;22678;52.052;4.242;2024-01-07T04:31:07;9.23;;;4.97;;
36691;SDS011;22678;52.052;4.242;2024-01-07T04:33:32;10.37;;;4.93;;
36691;SDS011;22678;52.052;4.242;2024-01-07T04:35:57;11.63;;;6.23;;
36691;SDS011;22678;52.052;4.242;2024-01-07T04:38:24;8.40;;;4.13;;
36691;SDS011;22678;52.052;4.242;2024-01-07T04:40:50;8.47;;;4.00;;
36691;SDS011;22678;52.052;4.242;2024-01-07T04:43:16;8.70;;;4.20;;
36691;SDS011;22678;52.052;4.242;2024-01-07T04:45:42;10.23;;;4.40;;
36691;SDS011;22678;52.052;4.242;2024-01-07T04:48:08;7.70;;;5.37;;
36691;SDS011;22678;52.052;4.242;2024-01-07T04:50:33;8.27;;;4.83;;
36691;SDS011;22678;52.052;4.242;2024-01-07T04:52:58;8.67;;;4.20;;
36691;SDS011;22678;52.052;4.242;2024-01-07T04:55:24;9.13;;;5.07;;
36691;SDS011;22678;52.052;4.242;2024-01-07T04:57:49;11.73;;;6.60;;
36691;SDS011;22678;52.052;4.242;2024-01-07T05:00:15;13.97;;;6.30;;
36691;SDS011;22678;52.052;4.242;2024-01-07T05:02:41;7.70;;;4.40;;
36691;SDS011;22678;52.052;4.242;2024-01-07T05:05:07;7.13;;;4.17;;
36691;SDS011;22678;52.052;4.242;2024-01-07T05:07:34;9.63;;;5.03;;
36691;SDS011;22678;52.052;4.242;2024-01-07T05:09:59;8.13;;;4.83;;
36691;SDS011;22678;52.052;4.242;2024-01-07T05:12:24;8.87;;;4.23;;
36691;SDS011;22678;52.052;4.242;2024-01-07T05:14:51;8.27;;;4.23;;
36691;SDS011;22678;52.052;4.242;2024-01-07T05:17:17;7.17;;;4.17;;
36691;SDS011;22678;52.052;4.242;2024-01-07T05:19:42;8.40;;;4.23;;
36691;SDS011;22678;52.052;4.242;2024-01-07T05:22:08;8.33;;;4.90;;
36691;SDS011;22678;52.052;4.242;2024-01-07T05:24:36;8.73;;;3.93;;
36691;SDS011;22678;52.052;4.242;2024-01-07T05:27:02;11.40;;;5.23;;
36691;SDS011;22678;52.052;4.242;2024-01-07T05:29:28;10.80;;;5.30;;
36691;SDS011;22678;52.052;4.242;2024-01-07T05:31:53;11.57;;;4.70;;
36691;SDS011;22678;52.052;4.242;2024-01-07T05:34:18;8.30;;;5.00;;
36691;SDS011;22678;52.052;4.242;2024-01-07T05:36:44;11.37;;;4.73;;
36691;SDS011;22678;52.052;4.242;2024-01-07T05:39:09;10.87;;;5.20;;
36691;SDS011;22678;52.052;4.242;2024-01-07T05:41:36;10.83;;;4.80;;
36691;SDS011;22678;52.052;4.242;2024-01-07T05:44:03;9.20;;;5.20;;
36691;SDS011;22678;52.052;4.242;2024-01-07T05:46:28;6.93;;;4.40;;
36691;SDS011;22678;52.052;4.242;2024-01-07T05:48:53;11.87;;;6.53;;
36691;SDS011;22678;52.052;4.242;2024-01-07T05:51:19;10.70;;;5.40;;
36691;SDS011;22678;52.052;4.242;2024-01-07T05:53:44;10.83;;;5.07;;
36691;SDS011;22678;52.052;4.242;2024-01-07T05:56:10;11.83;;;5.50;;
36691;SDS011;22678;52.052;4.242;2024-01-07T05:58:36;15.30;;;5.83;;
36691;SDS011;22678;52.052;4.242;2024-01-07T06:01:02;9.63;;;5.60;;
36691;SDS011;22678;52.052;4.242;2024-01-07T06:03:27;10.57;;;6.23;;
36691;SDS011;22678;52.052;4.242;2024-01-07T06:05:53;13.77;;;5.80;;
36691;SDS011;22678;52.052;4.242;2024-01-07T06:08:18;6.53;;;4.10;;
36691;SDS011;22678;52.052;4.242;2024-01-07T06:10:43;10.57;;;5.60;;
36691;SDS011;22678;52.052;4.242;2024-01-07T06:13:09;8.43;;;5.07;;
36691;SDS011;22678;52.052;4.242;2024-01-07T06:15:35;10.33;;;4.90;;
36691;SDS011;22678;52.052;4.242;2024-01-07T06:18:00;11.90;;;4.97;;
36691;SDS011;22678;52.052;4.242;2024-01-07T06:20:26;11.13;;;4.53;;
36691;SDS011;22678;52.052;4.242;2024-01-07T06:22:52;9.73;;;5.40;;
36691;SDS011;22678;52.052;4.242;2024-01-07T06:25:18;8.37;;;4.33;;
36691;SDS011;22678;52.052;4.242;2024-01-07T06:27:43;11.53;;;4.97;;
36691;SDS011;22678;52.052;4.242;2024-01-07T06:30:08;11.00;;;5.20;;
36691;SDS011;22678;52.052;4.242;2024-01-07T06:32:34;11.30;;;4.73;;
36691;SDS011;22678;52.052;4.242;2024-01-07T06:35:00;13.27;;;5.20;;
36691;SDS011;22678;52.052;4.242;2024-01-07T06:37:28;14.87;;;6.07;;
36691;SDS011;22678;52.052;4.242;2024-01-07T06:39:55;12.90;;;7.47;;
36691;SDS011;22678;52.052;4.242;2024-01-07T06:42:20;13.27;;;5.80;;
36691;SDS011;22678;52.052;4.242;2024-01-07T06:44:46;12.23;;;6.03;;
36691;SDS011;22678;52.052;4.242;2024-01-07T06:47:11;9.20;;;5.77;;
36691;SDS011;22678;52.052;4.242;2024-01-07T06:49:36;11.97;;;5.80;;
36691;SDS011;22678;52.052;4.242;2024-01-07T06:52:02;12.20;;;6.97;;
36691;SDS011;22678;52.052;4.242;2024-01-07T06:54:27;10.90;;;5.50;;
36691;SDS011;22678;52.052;4.242;2024-01-07T06:56:53;11.83;;;6.33;;
36691;SDS011;22678;52.052;4.242;2024-01-07T06:59:18;15.33;;;5.90;;
36691;SDS011;22678;52.052;4.242;2024-01-07T07:01:43;12.20;;;6.27;;
36691;SDS011;22678;52.052;4.242;2024-01-07T07:04:09;10.63;;;6.40;;
36691;SDS011;22678;52.052;4.242;2024-01-07T07:06:34;11.67;;;6.07;;
36691;SDS011;22678;52.052;4.242;2024-01-07T07:09:00;13.50;;;8.10;;
36691;SDS011;22678;52.052;4.242;2024-01-07T07:11:25;12.33;;;6.10;;
36691;SDS011;22678;52.052;4.242;2024-01-07T07:13:50;12.60;;;6.23;;
36691;SDS011;22678;52.052;4.242;2024-01-07T07:16:16;12.57;;;6.60;;
36691;SDS011;22678;52.052;4.242;2024-01-07T07:18:41;10.60;;;6.37;;
36691;SDS011;22678;52.052;4.242;2024-01-07T07:21:07;16.03;;;6.60;;
36691;SDS011;22678;52.052;4.242;2024-01-07T07:23:32;16.63;;;6.80;;
36691;SDS011;22678;52.052;4.242;2024-01-07T07:25:57;10.37;;;6.47;;
36691;SDS011;22678;52.052;4.242;2024-01-07T07:28:23;15.03;;;6.87;;
36691;SDS011;22678;52.052;4.242;2024-01-07T07:30:48;13.63;;;7.60;;
36691;SDS011;22678;52.052;4.242;2024-01-07T07:33:13;13.37;;;7.27;;
36691;SDS011;22678;52.052;4.242;2024-01-07T07:35:39;13.30;;;8.07;;
36691;SDS011;22678;52.052;4.242;2024-01-07T07:38:06;12.03;;;5.93;;
36691;SDS011;22678;52.052;4.242;2024-01-07T07:40:32;17.03;;;8.23;;
36691;SDS011;22678;52.052;4.242;2024-01-07T07:42:57;16.23;;;7.07;;
36691;SDS011;22678;52.052;4.242;2024-01-07T07:45:23;12.17;;;6.57;;
36691;SDS011;22678;52.052;4.242;2024-01-07T07:47:48;12.33;;;6.30;;
36691;SDS011;22678;52.052;4.242;2024-01-07T07:50:13;13.60;;;7.20;;
36691;SDS011;22678;52.052;4.242;2024-01-07T07:52:39;9.80;;;5.70;;
36691;SDS011;22678;52.052;4.242;2024-01-07T07:55:06;10.50;;;5.70;;
36691;SDS011;22678;52.052;4.242;2024-01-07T07:57:32;10.73;;;5.03;;
36691;SDS011;22678;52.052;4.242;2024-01-07T07:59:58;14.03;;;6.00;;
36691;SDS011;22678;52.052;4.242;2024-01-07T08:02:23;9.10;;;5.27;;
36691;SDS011;22678;52.052;4.242;2024-01-07T08:04:49;11.03;;;5.70;;
36691;SDS011;22678;52.052;4.242;2024-01-07T08:07:14;16.17;;;6.93;;
36691;SDS011;22678;52.052;4.242;2024-01-07T08:09:39;9.70;;;5.73;;
36691;SDS011;22678;52.052;4.242;2024-01-07T08:12:05;8.73;;;4.30;;
36691;SDS011;22678;52.052;4.242;2024-01-07T08:14:31;7.67;;;4.33;;
36691;SDS011;22678;52.052;4.242;2024-01-07T08:16:57;9.03;;;4.93;;
36691;SDS011;22678;52.052;4.242;2024-01-07T08:19:23;9.20;;;5.00;;
36691;SDS011;22678;52.052;4.242;2024-01-07T08:21:48;7.90;;;4.97;;
36691;SDS011;22678;52.052;4.242;2024-01-07T08:24:13;8.37;;;4.57;;
36691;SDS011;22678;52.052;4.242;2024-01-07T08:26:39;12.63;;;4.47;;
36691;SDS011;22678;52.052;4.242;2024-01-07T08:29:04;7.93;;;4.40;;
36691;SDS011;22678;52.052;4.242;2024-01-07T08:31:30;9.87;;;4.17;;
36691;SDS011;22678;52.052;4.242;2024-01-07T08:33:56;9.87;;;3.57;;
36691;SDS011;22678;52.052;4.242;2024-01-07T08:36:21;7.90;;;4.23;;
36691;SDS011;22678;52.052;4.242;2024-01-07T08:38:46;12.87;;;4.37;;
36691;SDS011;22678;52.052;4.242;2024-01-07T08:41:14;9.37;;;4.53;;
36691;SDS011;22678;52.052;4.242;2024-01-07T08:43:40;9.27;;;4.50;;
36691;SDS011;22678;52.052;4.242;2024-01-07T08:46:06;7.13;;;4.50;;
36691;SDS011;22678;52.052;4.242;2024-01-07T08:48:31;9.60;;;4.60;;
36691;SDS011;22678;52.052;4.242;2024-01-07T08:50:56;10.03;;;4.80;;
36691;SDS011;22678;52.052;4.242;2024-01-07T08:53:22;8.97;;;4.07;;
36691;SDS011;22678;52.052;4.242;2024-01-07T08:55:47;7.17;;;4.40;;
36691;SDS011;22678;52.052;4.242;2024-01-07T08:58:13;6.67;;;3.83;;
36691;SDS011;22678;52.052;4.242;2024-01-07T09:00:40;6.23;;;3.13;;
36691;SDS011;22678;52.052;4.242;2024-01-07T09:03:05;10.20;;;4.87;;
36691;SDS011;22678;52.052;4.242;2024-01-07T09:05:32;10.70;;;5.00;;
36691;SDS011;22678;52.052;4.242;2024-01-07T09:07:57;8.07;;;3.23;;
36691;SDS011;22678;52.052;4.242;2024-01-07T09:10:23;10.70;;;4.70;;
36691;SDS011;22678;52.052;4.242;2024-01-07T09:12:49;5.67;;;3.37;;
36691;SDS011;22678;52.052;4.242;2024-01-07T09:15:17;9.20;;;3.87;;
36691;SDS011;22678;52.052;4.242;2024-01-07T09:17:43;7.17;;;4.10;;
36691;SDS011;22678;52.052;4.242;2024-01-07T09:20:08;14.63;;;4.37;;
36691;SDS011;22678;52.052;4.242;2024-01-07T09:22:35;9.90;;;4.30;;
36691;SDS011;22678;52.052;4.242;2024-01-07T09:25:02;8.57;;;4.53;;
36691;SDS011;22678;52.052;4.242;2024-01-07T09:27:28;18.00;;;5.37;;
36691;SDS011;22678;52.052;4.242;2024-01-07T09:29:54;8.63;;;4.57;;
36691;SDS011;22678;52.052;4.242;2024-01-07T09:32:20;8.10;;;4.50;;
36691;SDS011;22678;52.052;4.242;2024-01-07T09:34:45;8.20;;;4.50;;
36691;SDS011;22678;52.052;4.242;2024-01-07T09:37:10;11.83;;;4.10;;
36691;SDS011;22678;52.052;4.242;2024-01-07T09:39:39;9.10;;;4.77;;
36691;SDS011;22678;52.052;4.242;2024-01-07T09:42:07;10.67;;;4.23;;
36691;SDS011;22678;52.052;4.242;2024-01-07T09:44:37;6.47;;;2.85;;
36691;SDS011;22678;52.052;4.242;2024-01-07T09:47:03;8.27;;;4.40;;
36691;SDS011;22678;52.052;4.242;2024-01-07T09:49:30;10.67;;;3.70;;
36691;SDS011;22678;52.052;4.242;2024-01-07T09:51:57;6.73;;;3.33;;
36691;SDS011;22678;52.052;4.242;2024-01-07T09:54:26;10.17;;;3.13;;
36691;SDS011;22678;52.052;4.242;2024-01-07T09:56:55;8.33;;;3.07;;
36691;SDS011;22678;52.052;4.242;2024-01-07T09:59:25;7.13;;;4.00;;
36691;SDS011;22678;52.052;4.242;2024-01-07T10:01:52;7.67;;;3.87;;
36691;SDS011;22678;52.052;4.242;2024-01-07T10:04:18;7.93;;;3.40;;
36691;SDS011;22678;52.052;4.242;2024-01-07T10:06:43;7.40;;;4.00;;
36691;SDS011;22678;52.052;4.242;2024-01-07T10:09:10;7.40;;;4.00;;
36691;SDS011;22678;52.052;4.242;2024-01-07T10:11:37;6.93;;;3.30;;
36691;SDS011;22678;52.052;4.242;2024-01-07T10:14:02;8.53;;;3.73;;
36691;SDS011;22678;52.052;4.242;2024-01-07T10:16:27;6.07;;;2.50;;
36691;SDS011;22678;52.052;4.242;2024-01-07T10:18:53;8.50;;;3.87;;
36691;SDS011;22678;52.052;4.242;2024-01-07T10:21:18;5.17;;;3.07;;
36691;SDS011;22678;52.052;4.242;2024-01-07T10:23:43;6.97;;;3.13;;
36691;SDS011;22678;52.052;4.242;2024-01-07T10:26:09;4.77;;;1.87;;
36691;SDS011;22678;52.052;4.242;2024-01-07T10:28:34;6.20;;;2.63;;
36691;SDS011;22678;52.052;4.242;2024-01-07T10:30:59;5.77;;;3.23;;
36691;SDS011;22678;52.052;4.242;2024-01-07T10:33:25;4.40;;;2.23;;
36691;SDS011;22678;52.052;4.242;2024-01-07T10:35:56;5.10;;;2.73;;
36691;SDS011;22678;52.052;4.242;2024-01-07T10:38:30;4.13;;;1.93;;
36691;SDS011;22678;52.052;4.242;2024-01-07T10:40:56;4.80;;;2.13;;
36691;SDS011;22678;52.052;4.242;2024-01-07T10:43:24;5.20;;;2.30;;
36691;SDS011;22678;52.052;4.242;2024-01-07T10:45:53;4.83;;;2.00;;
36691;SDS011;22678;52.052;4.242;2024-01-07T10:48:20;5.70;;;2.53;;
36691;SDS011;22678;52.052;4.242;2024-01-07T10:50:46;5.40;;;2.13;;
36691;SDS011;22678;52.052;4.242;2024-01-07T10:53:17;6.53;;;2.57;;
36691;SDS011;22678;52.052;4.242;2024-01-07T10:55:48;7.37;;;3.10;;
36691;SDS011;22678;52.052;4.242;2024-01-07T10:58:24;6.60;;;2.30;;
36691;SDS011;22678;52.052;4.242;2024-01-07T11:00:51;7.80;;;3.67;;
36691;SDS011;22678;52.052;4.242;2024-01-07T11:03:40;5.80;;;3.03;;
36691;SDS011;22678;52.052;4.242;2024-01-07T11:06:08;6.87;;;3.40;;
36691;SDS011;22678;52.052;4.242;2024-01-07T11:08:52;7.77;;;2.57;;
36691;SDS011;22678;52.052;4.242;2024-01-07T11:11:26;5.75;;;1.90;;
36691;SDS011;22678;52.052;4.242;2024-01-07T11:13:56;8.23;;;2.70;;
36691;SDS011;22678;52.052;4.242;2024-01-07T11:16:55;8.23;;;3.40;;
36691;SDS011;22678;52.052;4.242;2024-01-07T11:19:13;4.97;;;2.90;;
36691;SDS011;22678;52.052;4.242;2024-01-07T11:21:39;8.57;;;2.63;;
36691;SDS011;22678;52.052;4.242;2024-01-07T11:24:05;6.67;;;2.50;;
36691;SDS011;22678;52.052;4.242;2024-01-07T11:26:30;7.10;;;2.43;;
36691;SDS011;22678;52.052;4.242;2024-01-07T11:28:56;4.73;;;2.23;;
36691;SDS011;22678;52.052;4.242;2024-01-07T11:34:06;2.90;;;1.57;;
36691;SDS011;22678;52.052;4.242;2024-01-07T11:36:37;6.77;;;2.67;;
36691;SDS011;22678;52.052;4.242;2024-01-07T11:39:06;4.70;;;1.97;;
36691;SDS011;22678;52.052;4.242;2024-01-07T11:41:33;7.07;;;2.33;;
36691;SDS011;22678;52.052;4.242;2024-01-07T11:43:59;5.03;;;1.60;;
36691;SDS011;22678;52.052;4.242;2024-01-07T11:46:26;9.27;;;2.87;;
36691;SDS011;22678;52.052;4.242;2024-01-07T11:48:53;5.57;;;1.53;;
36691;SDS011;22678;52.052;4.242;2024-01-07T11:51:24;3.53;;;1.53;;
36691;SDS011;22678;52.052;4.242;2024-01-07T11:53:53;4.40;;;1.50;;
36691;SDS011;22678;52.052;4.242;2024-01-07T11:56:19;5.23;;;1.27;;
36691;SDS011;22678;52.052;4.242;2024-01-07T11:58:44;3.47;;;1.57;;
36691;SDS011;22678;52.052;4.242;2024-01-07T12:01:10;3.30;;;1.27;;
36691;SDS011;22678;52.052;4.242;2024-01-07T12:03:35;3.40;;;1.23;;
36691;SDS011;22678;52.052;4.242;2024-01-07T12:06:01;5.87;;;2.30;;
36691;SDS011;22678;52.052;4.242;2024-01-07T12:08:26;3.63;;;1.23;;
36691;SDS011;22678;52.052;4.242;2024-01-07T12:10:52;2.30;;;1.03;;
36691;SDS011;22678;52.052;4.242;2024-01-07T12:13:17;4.00;;;2.27;;
36691;SDS011;22678;52.052;4.242;2024-01-07T12:15:43;5.47;;;1.50;;
36691;SDS011;22678;52.052;4.242;2024-01-07T12:18:10;2.83;;;0.93;;
36691;SDS011;22678;52.052;4.242;2024-01-07T12:20:36;3.67;;;1.40;;
36691;SDS011;22678;52.052;4.242;2024-01-07T12:23:05;3.40;;;1.73;;
36691;SDS011;22678;52.052;4.242;2024-01-07T12:25:34;4.10;;;1.88;;
36691;SDS011;22678;52.052;4.242;2024-01-07T12:28:00;4.03;;;1.17;;
36691;SDS011;22678;52.052;4.242;2024-01-07T12:30:26;4.20;;;1.40;;
36691;SDS011;22678;52.052;4.242;2024-01-07T12:32:52;2.50;;;1.50;;
36691;SDS011;22678;52.052;4.242;2024-01-07T12:35:17;4.07;;;1.37;;
36691;SDS011;22678;52.052;4.242;2024-01-07T12:37:43;2.93;;;1.07;;
36691;SDS011;22678;52.052;4.242;2024-01-07T12:40:09;2.93;;;1.20;;
36691;SDS011;22678;52.052;4.242;2024-01-07T12:42:36;3.23;;;1.10;;
36691;SDS011;22678;52.052;4.242;2024-01-07T12:45:05;6.10;;;1.70;;
36691;SDS011;22678;52.052;4.242;2024-01-07T12:47:30;2.87;;;0.80;;
36691;SDS011;22678;52.052;4.242;2024-01-07T12:49:56;2.93;;;1.27;;
36691;SDS011;22678;52.052;4.242;2024-01-07T12:52:22;3.13;;;1.30;;
36691;SDS011;22678;52.052;4.242;2024-01-07T12:54:47;4.60;;;1.10;;
36691;SDS011;22678;52.052;4.242;2024-01-07T12:57:12;2.67;;;1.50;;
36691;SDS011;22678;52.052;4.242;2024-01-07T12:59:38;3.93;;;1.70;;
36691;SDS011;22678;52.052;4.242;2024-01-07T13:02:03;4.17;;;0.80;;
36691;SDS011;22678;52.052;4.242;2024-01-07T13:04:28;2.53;;;0.90;;
36691;SDS011;22678;52.052;4.242;2024-01-07T13:06:54;2.43;;;0.77;;
36691;SDS011;22678;52.052;4.242;2024-01-07T13:09:19;4.13;;;0.70;;
36691;SDS011;22678;52.052;4.242;2024-01-07T13:11:45;3.20;;;0.90;;
36691;SDS011;22678;52.052;4.242;2024-01-07T13:14:10;6.10;;;1.27;;
36691;SDS011;22678;52.052;4.242;2024-01-07T13:16:35;1.90;;;0.67;;
36691;SDS011;22678;52.052;4.242;2024-01-07T13:19:01;3.23;;;0.53;;
36691;SDS011;22678;52.052;4.242;2024-01-07T13:21:26;6.17;;;0.63;;
36691;SDS011;22678;52.052;4.242;2024-01-07T13:23:51;1.90;;;0.97;;
36691;SDS011;22678;52.052;4.242;2024-01-07T13:26:17;2.10;;;0.70;;
36691;SDS011;22678;52.052;4.242;2024-01-07T13:28:42;2.70;;;0.77;;
36691;SDS011;22678;52.052;4.242;2024-01-07T13:31:08;2.07;;;0.60;;
36691;SDS011;22678;52.052;4.242;2024-01-07T13:33:34;3.23;;;1.03;;
36691;SDS011;22678;52.052;4.242;2024-01-07T13:36:00;2.13;;;0.80;;
36691;SDS011;22678;52.052;4.242;2024-01-07T13:38:25;3.40;;;0.53;;
36691;SDS011;22678;52.052;4.242;2024-01-07T13:40:51;2.07;;;0.40;;
36691;SDS011;22678;52.052;4.242;2024-01-07T13:43:16;3.10;;;0.87;;
36691;SDS011;22678;52.052;4.242;2024-01-07T13:45:42;2.53;;;0.60;;
36691;SDS011;22678;52.052;4.242;2024-01-07T13:48:07;2.87;;;0.70;;
36691;SDS011;22678;52.052;4.242;2024-01-07T13:50:34;2.07;;;1.23;;
36691;SDS011;22678;52.052;4.242;2024-01-07T13:52:59;2.47;;;0.53;;
36691;SDS011;22678;52.052;4.242;2024-01-07T13:55:24;1.73;;;0.63;;
36691;SDS011;22678;52.052;4.242;2024-01-07T13:57:50;1.30;;;0.40;;
36691;SDS011;22678;52.052;4.242;2024-01-07T14:00:15;3.17;;;1.10;;
36691;SDS011;22678;52.052;4.242;2024-01-07T14:02:43;1.73;;;0.33;;
36691;SDS011;22678;52.052;4.242;2024-01-07T14:05:10;1.50;;;0.53;;
36691;SDS011;22678;52.052;4.242;2024-01-07T14:07:37;1.03;;;0.57;;
36691;SDS011;22678;52.052;4.242;2024-01-07T14:10:05;1.60;;;0.43;;
36691;SDS011;22678;52.052;4.242;2024-01-07T14:12:32;5.00;;;0.70;;
36691;SDS011;22678;52.052;4.242;2024-01-07T14:14:57;1.57;;;0.40;;
36691;SDS011;22678;52.052;4.242;2024-01-07T14:17:24;1.63;;;0.40;;
36691;SDS011;22678;52.052;4.242;2024-01-07T14:19:50;1.50;;;0.40;;
36691;SDS011;22678;52.052;4.242;2024-01-07T14:22:17;2.43;;;0.73;;
36691;SDS011;22678;52.052;4.242;2024-01-07T14:24:43;1.00;;;0.40;;
36691;SDS011;22678;52.052;4.242;2024-01-07T14:27:08;1.70;;;0.77;;
36691;SDS011;22678;52.052;4.242;2024-01-07T14:29:35;4.13;;;0.80;;
36691;SDS011;22678;52.052;4.242;2024-01-07T14:32:00;2.93;;;0.60;;
36691;SDS011;22678;52.052;4.242;2024-01-07T14:34:27;2.20;;;0.40;;
36691;SDS011;22678;52.052;4.242;2024-01-07T14:36:52;1.87;;;0.30;;
36691;SDS011;22678;52.052;4.242;2024-01-07T14:39:18;1.83;;;0.40;;